Time,TemperatureF,DewpointF,PressureIn,WindDirection,WindDirectionDegrees,WindSpeedMPH,WindSpeedGustMPH,Humidity,HourlyPrecipIn,Conditions,Clouds,dailyrainin,SoftwareType,DateUTC
2013-10-23 00:01:00,39.7,32.4,29.81,SW,229,2.4,3.5,75,0.00,RA,,0.00,WeatherDisplay:10.37,2013-10-23 04:01:00,
2013-10-23 00:02:00,39.7,32.4,29.81,SW,233,2.4,3.5,75,0.00,RA,,0.00,WeatherDisplay:10.37,2013-10-23 04:02:00,
2013-10-23 00:03:00,39.7,32.4,29.81,WSW,252,2.2,3.5,75,0.00,RA,,0.00,WeatherDisplay:10.37,2013-10-23 04:03:00,
2013-10-23 00:09:00,39.6,32.3,29.81,WSW,240,2.3,3.5,75,0.00,RA,,0.00,WeatherDisplay:10.37,2013-10-23 04:09:00,
2013-10-23 00:14:00,39.8,32.2,29.80,West,277,3.7,5.8,74,0.00,BKN,,0.00,WeatherDisplay:10.37,2013-10-23 04:14:00,
2013-10-23 00:19:00,40.0,32.4,29.80,West,259,2.7,3.5,74,0.00,BKN,,0.00,WeatherDisplay:10.37,2013-10-23 04:19:00,
2013-10-23 00:24:00,40.0,32.0,29.80,SW,231,2.5,3.5,73,0.00,BKN,,0.00,WeatherDisplay:10.37,2013-10-23 04:24:00,
2013-10-23 00:29:00,39.8,32.2,29.80,WSW,242,2.3,3.5,74,0.00,BKN,,0.00,WeatherDisplay:10.37,2013-10-23 04:29:00,
2013-10-23 00:34:00,39.6,32.0,29.80,WSW,243,1.9,2.3,74,0.00,BKN,,0.00,WeatherDisplay:10.37,2013-10-23 04:34:00,
2013-10-23 00:39:00,39.4,32.1,29.80,SW,233,1.7,2.3,75,0.00,BKN,,0.00,WeatherDisplay:10.37,2013-10-23 04:39:00,
2013-10-23 00:44:00,39.3,32.0,29.80,SW,231,1.7,2.3,75,0.00,BKN,,0.00,WeatherDisplay:10.37,2013-10-23 04:44:00,
2013-10-23 00:49:00,39.3,32.0,29.80,SW,232,0.9,2.3,75,0.00,BKN,,0.00,WeatherDisplay:10.37,2013-10-23 04:49:00,
2013-10-23 00:54:00,39.1,31.8,29.80,SW,228,0.3,1.2,75,0.00,BKN,,0.00,WeatherDisplay:10.37,2013-10-23 04:54:00,
2013-10-23 00:59:00,39.1,31.8,29.80,SW,227,0.8,1.2,75,0.00,BKN,,0.00,WeatherDisplay:10.37,2013-10-23 04:59:00,
2013-10-23 01:04:00,39.1,31.8,29.80,SW,231,1.4,2.3,75,0.00,BKN,,0.00,WeatherDisplay:10.37,2013-10-23 05:04:00,
2013-10-23 01:09:00,38.9,31.6,29.79,SW,229,0.2,0.0,75,0.00,BKN,,0.00,WeatherDisplay:10.37,2013-10-23 05:09:00,
2013-10-23 01:14:00,38.8,31.6,29.79,South,179,0.0,0.0,75,0.00,BKN,,0.00,WeatherDisplay:10.37,2013-10-23 05:14:00,
2013-10-23 01:19:00,38.7,31.8,29.79,South,169,0.5,2.3,76,0.00,BKN,,0.00,WeatherDisplay:10.37,2013-10-23 05:19:00,
2013-10-23 01:24:00,38.6,31.7,29.79,SSE,160,0.3,1.2,76,0.00,BKN,,0.00,WeatherDisplay:10.37,2013-10-23 05:24:00,
2013-10-23 01:29:00,38.4,31.5,29.79,SSE,153,0.0,0.0,76,0.00,BKN,,0.00,WeatherDisplay:10.37,2013-10-23 05:29:00,
2013-10-23 01:34:00,38.3,31.4,29.79,SSE,153,0.0,0.0,76,0.00,BKN,,0.00,WeatherDisplay:10.37,2013-10-23 05:34:00,
2013-10-23 01:39:00,38.1,31.2,29.79,SSE,152,0.0,0.0,76,0.00,BKN,,0.00,WeatherDisplay:10.37,2013-10-23 05:39:00,
2013-10-23 01:44:00,37.8,31.2,29.79,SSE,153,0.0,0.0,77,0.00,BKN,,0.00,WeatherDisplay:10.37,2013-10-23 05:44:00,
2013-10-23 01:49:00,37.6,31.0,29.78,SSE,153,0.0,0.0,77,0.00,BKN,,0.00,WeatherDisplay:10.37,2013-10-23 05:49:00,
2013-10-23 01:54:00,37.5,31.3,29.78,SSE,152,0.0,0.0,78,0.00,BKN,,0.00,WeatherDisplay:10.37,2013-10-23 05:54:00,
2013-10-23 01:59:00,37.2,31.3,29.78,SSE,152,0.0,0.0,79,0.00,BKN,,0.00,WeatherDisplay:10.37,2013-10-23 05:59:00,
2013-10-23 02:04:00,36.9,31.3,29.78,SSE,153,0.0,0.0,80,0.00,BKN,,0.00,WeatherDisplay:10.37,2013-10-23 06:04:00,
2013-10-23 02:09:00,36.8,31.2,29.78,SSE,153,0.0,0.0,80,0.00,BKN,,0.00,WeatherDisplay:10.37,2013-10-23 06:09:00,
2013-10-23 02:14:00,36.8,31.2,29.78,SSE,152,0.0,0.0,80,0.00,BKN,,0.00,WeatherDisplay:10.37,2013-10-23 06:14:00,
2013-10-23 02:19:00,36.8,31.2,29.78,SSE,153,0.1,1.2,80,0.00,BKN,,0.00,WeatherDisplay:10.37,2013-10-23 06:19:00,
2013-10-23 02:24:00,37.0,31.4,29.78,SSE,153,0.1,1.2,80,0.00,BKN,,0.00,WeatherDisplay:10.37,2013-10-23 06:24:00,
2013-10-23 02:29:00,37.2,31.6,29.78,SSE,152,0.3,1.2,80,0.00,BKN,,0.00,WeatherDisplay:10.37,2013-10-23 06:29:00,
2013-10-23 02:34:00,37.4,31.8,29.78,South,181,0.8,1.2,80,0.00,BKN,,0.00,WeatherDisplay:10.37,2013-10-23 06:34:00,
2013-10-23 02:39:00,37.6,31.7,29.78,SSE,156,0.6,1.2,79,0.00,BKN,,0.00,WeatherDisplay:10.37,2013-10-23 06:39:00,
2013-10-23 02:44:00,37.7,31.8,29.78,SSE,158,1.2,1.2,79,0.00,BKN,,0.00,WeatherDisplay:10.37,2013-10-23 06:44:00,
2013-10-23 02:49:00,37.9,32.0,29.78,SSW,198,0.0,2.3,79,0.00,BKN,,0.00,WeatherDisplay:10.37,2013-10-23 06:49:00,
2013-10-23 02:54:00,38.0,32.1,29.78,SE,143,1.1,1.2,79,0.00,BKN,,0.00,WeatherDisplay:10.37,2013-10-23 06:54:00,
2013-10-23 02:59:00,38.0,32.1,29.78,South,169,0.0,1.2,79,0.00,BKN,,0.00,WeatherDisplay:10.37,2013-10-23 06:59:00,
2013-10-23 03:04:00,38.0,32.1,29.77,South,169,0.4,0.0,79,0.00,BKN,,0.00,WeatherDisplay:10.37,2013-10-23 07:04:00,
2013-10-23 03:09:00,38.0,32.1,29.77,South,179,1.8,3.5,79,0.00,BKN,,0.00,WeatherDisplay:10.37,2013-10-23 07:09:00,
2013-10-23 03:14:00,38.1,32.2,29.77,SSE,153,0.0,2.3,79,0.00,BKN,,0.00,WeatherDisplay:10.37,2013-10-23 07:14:00,
2013-10-23 03:19:00,38.2,32.3,29.77,South,177,0.3,1.2,79,0.00,BKN,,0.00,WeatherDisplay:10.37,2013-10-23 07:19:00,
2013-10-23 03:24:00,38.1,32.2,29.77,SW,215,0.0,0.0,79,0.00,BKN,,0.00,WeatherDisplay:10.37,2013-10-23 07:24:00,
2013-10-23 03:29:00,37.9,32.0,29.76,SSW,212,0.0,1.2,79,0.00,BKN,,0.00,WeatherDisplay:10.37,2013-10-23 07:29:00,
2013-10-23 03:34:00,37.8,32.2,29.76,SE,141,1.7,2.3,80,0.00,BKN,,0.00,WeatherDisplay:10.37,2013-10-23 07:34:00,
2013-10-23 03:39:00,38.0,32.4,29.76,SSE,166,2.8,3.5,80,0.00,BKN,,0.00,WeatherDisplay:10.37,2013-10-23 07:39:00,
2013-10-23 03:44:00,38.1,32.5,29.76,South,177,2.0,4.0,80,0.00,BKN,,0.00,WeatherDisplay:10.37,2013-10-23 07:44:00,
2013-10-23 03:49:00,38.3,32.7,29.76,SSW,195,2.5,3.5,80,0.00,BKN,,0.00,WeatherDisplay:10.37,2013-10-23 07:49:00,
2013-10-23 03:54:00,38.4,32.8,29.76,SSW,211,1.5,3.5,80,0.00,BKN,,0.00,WeatherDisplay:10.37,2013-10-23 07:54:00,
2013-10-23 03:59:00,38.5,32.9,29.76,SSW,194,1.0,2.0,80,0.00,BKN,,0.00,WeatherDisplay:10.37,2013-10-23 07:59:00,
2013-10-23 04:04:00,38.6,33.0,29.76,South,181,1.0,3.0,80,0.00,BKN,,0.00,WeatherDisplay:10.37,2013-10-23 08:04:00,
2013-10-23 04:09:00,38.7,33.1,29.75,South,188,0.0,1.0,80,0.00,BKN,,0.00,WeatherDisplay:10.37,2013-10-23 08:09:00,
2013-10-23 04:14:00,38.7,33.1,29.75,SSW,195,0.0,1.0,80,0.00,BKN,,0.00,WeatherDisplay:10.37,2013-10-23 08:14:00,
2013-10-23 04:19:00,38.7,33.1,29.75,SSE,165,0.8,1.2,80,0.00,BKN,,0.00,WeatherDisplay:10.37,2013-10-23 08:19:00,
2013-10-23 04:24:00,38.8,33.2,29.75,SSE,150,2.2,3.5,80,0.00,BKN,,0.00,WeatherDisplay:10.37,2013-10-23 08:24:00,
2013-10-23 04:29:00,39.0,33.4,29.75,South,177,1.0,3.0,80,0.00,BKN,,0.00,WeatherDisplay:10.37,2013-10-23 08:29:00,
2013-10-23 04:34:00,39.1,33.5,29.75,South,186,2.3,3.5,80,0.00,BKN,,0.00,WeatherDisplay:10.37,2013-10-23 08:34:00,
2013-10-23 04:40:00,39.2,33.5,29.75,South,183,2.3,3.0,80,0.00,BKN,,0.00,WeatherDisplay:10.37,2013-10-23 08:40:00,
2013-10-23 04:45:00,39.3,34.0,29.75,SSW,200,2.5,5.0,81,0.00,BKN,,0.00,WeatherDisplay:10.37,2013-10-23 08:45:00,
2013-10-23 04:50:00,39.4,34.1,29.75,SSE,160,3.1,4.0,81,0.00,BKN,,0.00,WeatherDisplay:10.37,2013-10-23 08:50:00,
2013-10-23 04:55:00,39.5,34.5,29.75,SSE,161,2.1,3.5,82,0.00,BKN,,0.00,WeatherDisplay:10.37,2013-10-23 08:55:00,
2013-10-23 05:00:00,39.6,34.9,29.75,South,185,1.6,3.5,83,0.00,-RA,,0.00,WeatherDisplay:10.37,2013-10-23 09:00:00,
2013-10-23 05:05:00,39.7,35.0,29.75,SSE,153,2.2,3.5,83,0.00,-RA,,0.00,WeatherDisplay:10.37,2013-10-23 09:05:00,
2013-10-23 05:10:00,39.7,35.3,29.74,SSE,159,2.0,3.5,84,0.00,-RA,,0.00,WeatherDisplay:10.37,2013-10-23 09:10:00,
2013-10-23 05:15:00,39.7,35.3,29.75,SSW,198,1.1,2.3,84,0.00,-RA,,0.00,WeatherDisplay:10.37,2013-10-23 09:15:00,
2013-10-23 05:20:00,39.8,35.7,29.75,SW,214,2.0,4.6,85,0.00,-RA,,0.00,WeatherDisplay:10.37,2013-10-23 09:20:00,
2013-10-23 05:25:00,39.9,36.1,29.75,SSW,203,1.4,3.5,86,0.00,-RA,,0.00,WeatherDisplay:10.37,2013-10-23 09:25:00,
2013-10-23 05:30:00,40.0,36.2,29.75,SSW,201,1.3,3.5,86,0.00,-RA,,0.00,WeatherDisplay:10.37,2013-10-23 09:30:00,
2013-10-23 05:35:00,40.1,36.5,29.75,SW,219,1.0,2.3,87,0.00,-RA,,0.00,WeatherDisplay:10.37,2013-10-23 09:35:00,
2013-10-23 05:40:00,40.1,36.5,29.75,SSW,213,1.5,3.5,87,0.00,-RA,,0.00,WeatherDisplay:10.37,2013-10-23 09:40:00,
2013-10-23 05:45:00,40.1,36.5,29.75,South,186,2.5,3.5,87,0.00,-RA,,0.00,WeatherDisplay:10.37,2013-10-23 09:45:00,
2013-10-23 05:50:00,40.1,36.8,29.75,SSW,211,0.9,2.3,88,0.00,-RA,,0.00,WeatherDisplay:10.37,2013-10-23 09:50:00,
2013-10-23 05:55:00,40.1,36.8,29.75,SW,214,1.9,3.5,88,0.00,-RA,,0.00,WeatherDisplay:10.37,2013-10-23 09:55:00,
2013-10-23 06:00:00,40.0,36.7,29.74,South,176,2.4,3.5,88,0.00,-RA,,0.00,WeatherDisplay:10.37,2013-10-23 10:00:00,
2013-10-23 06:05:00,40.0,37.0,29.74,South,190,1.6,3.5,89,0.00,-RA,,0.00,WeatherDisplay:10.37,2013-10-23 10:05:00,
2013-10-23 06:10:00,40.0,37.0,29.74,SSE,162,1.3,2.3,89,0.00,-RA,,0.00,WeatherDisplay:10.37,2013-10-23 10:10:00,
2013-10-23 06:15:00,40.0,37.0,29.74,SW,222,0.7,2.3,89,0.00,-RA,,0.00,WeatherDisplay:10.37,2013-10-23 10:15:00,
2013-10-23 06:20:00,40.0,37.0,29.74,SW,234,0.8,2.3,89,0.00,-RA,,0.00,WeatherDisplay:10.37,2013-10-23 10:20:00,
2013-10-23 06:25:00,40.0,37.3,29.74,SSW,212,1.7,3.5,90,0.00,-RA,,0.00,WeatherDisplay:10.37,2013-10-23 10:25:00,
2013-10-23 06:31:00,40.0,37.3,29.74,WSW,240,4.6,6.0,90,0.00,-RA,,0.00,WeatherDisplay:10.37,2013-10-23 10:31:00,
2013-10-23 06:36:00,40.0,37.6,29.74,South,176,1.9,3.5,91,0.01,-RA,,0.01,WeatherDisplay:10.37,2013-10-23 10:36:00,
2013-10-23 06:41:00,39.9,37.5,29.74,South,169,2.6,4.0,91,0.01,-RA,,0.01,WeatherDisplay:10.37,2013-10-23 10:41:00,
2013-10-23 06:46:00,39.9,37.5,29.74,South,179,1.2,3.5,91,0.01,-RA,,0.01,WeatherDisplay:10.37,2013-10-23 10:46:00,
2013-10-23 06:51:00,39.7,37.3,29.73,SSW,193,1.8,2.3,91,0.01,-RA,,0.01,WeatherDisplay:10.37,2013-10-23 10:51:00,
2013-10-23 06:56:00,39.6,37.2,29.74,South,177,2.2,3.5,91,0.01,-RA,,0.01,WeatherDisplay:10.37,2013-10-23 10:56:00,
2013-10-23 07:01:00,39.5,37.4,29.73,SSW,207,1.8,3.5,92,0.01,BKN,,0.01,WeatherDisplay:10.37,2013-10-23 11:01:00,
2013-10-23 07:06:00,39.4,37.3,29.74,SSE,160,2.7,3.5,92,0.01,BKN,,0.01,WeatherDisplay:10.37,2013-10-23 11:06:00,
2013-10-23 07:11:00,39.3,37.2,29.74,SSW,206,1.2,3.5,92,0.01,BKN,,0.01,WeatherDisplay:10.37,2013-10-23 11:11:00,
2013-10-23 07:16:00,39.2,37.1,29.74,SSE,160,1.2,2.3,92,0.01,BKN,,0.01,WeatherDisplay:10.37,2013-10-23 11:16:00,
2013-10-23 07:21:00,39.1,37.0,29.74,SSW,204,0.1,1.2,92,0.01,BKN,,0.01,WeatherDisplay:10.37,2013-10-23 11:21:00,
2013-10-23 07:26:00,39.1,37.0,29.74,SSW,209,0.0,1.2,92,0.01,BKN,,0.01,WeatherDisplay:10.37,2013-10-23 11:26:00,
2013-10-23 07:31:00,39.0,37.1,29.74,SSW,204,0.9,2.3,93,0.01,BKN,,0.01,WeatherDisplay:10.37,2013-10-23 11:31:00,
2013-10-23 07:36:00,39.0,37.1,29.74,South,188,0.0,1.2,93,0.00,BKN,,0.01,WeatherDisplay:10.37,2013-10-23 11:36:00,
2013-10-23 07:41:00,39.0,37.1,29.74,South,188,0.0,0.0,93,0.00,BKN,,0.01,WeatherDisplay:10.37,2013-10-23 11:41:00,
2013-10-23 07:46:00,39.0,37.1,29.74,SW,236,0.1,1.0,93,0.00,BKN,,0.01,WeatherDisplay:10.37,2013-10-23 11:46:00,
2013-10-23 07:51:00,39.1,37.2,29.74,SW,235,1.6,2.3,93,0.00,BKN,,0.01,WeatherDisplay:10.37,2013-10-23 11:51:00,
2013-10-23 07:56:00,39.1,37.2,29.74,SSE,152,0.6,1.2,93,0.00,BKN,,0.01,WeatherDisplay:10.37,2013-10-23 11:56:00,
2013-10-23 08:01:00,39.1,37.2,29.74,South,176,2.3,3.5,93,0.01,RA,,0.02,WeatherDisplay:10.37,2013-10-23 12:01:00,
2013-10-23 08:06:00,39.1,37.2,29.74,SSW,204,0.1,2.0,93,0.01,RA,,0.02,WeatherDisplay:10.37,2013-10-23 12:06:00,
2013-10-23 08:11:00,39.2,37.3,29.74,SSW,205,0.2,2.0,93,0.01,OVC,,0.02,WeatherDisplay:10.37,2013-10-23 12:11:00,
2013-10-23 08:16:00,39.2,37.3,29.75,SSW,211,0.5,1.2,93,0.01,OVC,,0.02,WeatherDisplay:10.37,2013-10-23 12:16:00,
2013-10-23 08:21:00,39.2,37.3,29.75,SW,232,1.0,2.3,93,0.01,OVC,,0.02,WeatherDisplay:10.37,2013-10-23 12:21:00,
2013-10-23 08:26:00,39.3,37.4,29.75,SW,216,1.0,1.2,93,0.01,OVC,,0.02,WeatherDisplay:10.37,2013-10-23 12:26:00,
2013-10-23 08:31:00,39.4,37.5,29.75,SW,219,1.6,3.5,93,0.01,OVC,,0.02,WeatherDisplay:10.37,2013-10-23 12:31:00,
2013-10-23 08:36:00,39.5,37.6,29.75,SSW,199,0.6,1.2,93,0.01,OVC,,0.02,WeatherDisplay:10.37,2013-10-23 12:36:00,
2013-10-23 08:41:00,39.5,37.6,29.75,SW,229,1.3,2.3,93,0.01,OVC,,0.02,WeatherDisplay:10.37,2013-10-23 12:41:00,
2013-10-23 08:46:00,39.6,38.0,29.74,SW,214,1.5,2.3,94,0.01,OVC,,0.02,WeatherDisplay:10.37,2013-10-23 12:46:00,
2013-10-23 08:51:00,39.7,37.8,29.75,SSW,210,1.6,3.5,93,0.01,OVC,,0.02,WeatherDisplay:10.37,2013-10-23 12:51:00,
2013-10-23 08:56:00,39.7,37.8,29.75,SE,141,2.4,3.5,93,0.01,OVC,,0.02,WeatherDisplay:10.37,2013-10-23 12:56:00,
2013-10-23 09:01:00,39.8,37.9,29.75,SSW,212,1.6,3.5,93,0.00,OVC,,0.02,WeatherDisplay:10.37,2013-10-23 13:01:00,
2013-10-23 09:06:00,40.0,38.1,29.75,SSW,213,1.4,3.5,93,0.00,OVC,,0.02,WeatherDisplay:10.37,2013-10-23 13:06:00,
2013-10-23 09:11:00,40.0,38.1,29.75,SW,233,2.5,3.5,93,0.00,OVC,,0.02,WeatherDisplay:10.37,2013-10-23 13:11:00,
2013-10-23 09:16:00,40.1,38.2,29.75,SW,219,0.5,2.3,93,0.00,OVC,,0.02,WeatherDisplay:10.37,2013-10-23 13:16:00,
2013-10-23 09:21:00,40.3,38.4,29.75,SW,227,2.5,3.5,93,0.00,OVC,,0.02,WeatherDisplay:10.37,2013-10-23 13:21:00,
2013-10-23 09:26:00,40.3,38.4,29.75,WSW,250,2.9,4.0,93,0.00,OVC,,0.02,WeatherDisplay:10.37,2013-10-23 13:26:00,
2013-10-23 09:31:00,40.5,38.6,29.75,WSW,245,3.4,4.6,93,0.00,OVC,,0.02,WeatherDisplay:10.37,2013-10-23 13:31:00,
2013-10-23 09:36:00,40.6,38.7,29.75,West,274,2.3,8.1,93,0.00,OVC,,0.02,WeatherDisplay:10.37,2013-10-23 13:36:00,
2013-10-23 09:41:00,40.7,38.8,29.74,WSW,253,2.8,3.5,93,0.00,OVC,,0.02,WeatherDisplay:10.37,2013-10-23 13:41:00,
2013-10-23 09:46:00,40.7,38.8,29.74,SW,234,2.9,3.5,93,0.00,OVC,,0.02,WeatherDisplay:10.37,2013-10-23 13:46:00,
2013-10-23 09:51:00,40.7,38.8,29.74,SW,236,2.4,3.5,93,0.00,OVC,,0.02,WeatherDisplay:10.37,2013-10-23 13:51:00,
2013-10-23 09:56:00,40.9,39.0,29.74,SW,217,0.7,1.2,93,0.00,OVC,,0.02,WeatherDisplay:10.37,2013-10-23 13:56:00,
2013-10-23 10:01:00,41.2,39.3,29.74,SSW,192,3.3,4.6,93,0.00,OVC,,0.02,WeatherDisplay:10.37,2013-10-23 14:01:00,
2013-10-23 10:06:00,41.4,39.5,29.74,WSW,245,3.1,3.5,93,0.00,OVC,,0.02,WeatherDisplay:10.37,2013-10-23 14:06:00,
2013-10-23 10:11:00,41.4,39.5,29.74,SSW,210,3.8,3.8,93,0.00,OVC,,0.02,WeatherDisplay:10.37,2013-10-23 14:11:00,
2013-10-23 10:16:00,41.7,39.5,29.74,SSW,202,2.8,3.5,92,0.00,OVC,,0.02,WeatherDisplay:10.37,2013-10-23 14:16:00,
2013-10-23 10:21:00,41.8,39.4,29.74,SSW,212,3.2,5.8,91,0.00,OVC,,0.02,WeatherDisplay:10.37,2013-10-23 14:21:00,
2013-10-23 10:26:00,42.0,39.6,29.74,WSW,238,4.1,5.0,91,0.00,OVC,,0.02,WeatherDisplay:10.37,2013-10-23 14:26:00,
2013-10-23 10:31:00,42.1,39.4,29.74,SSW,213,4.5,6.9,90,0.00,OVC,,0.02,WeatherDisplay:10.37,2013-10-23 14:31:00,
2013-10-23 10:36:00,42.2,39.5,29.74,WSW,240,6.1,6.1,90,0.00,OVC,,0.02,WeatherDisplay:10.37,2013-10-23 14:36:00,
2013-10-23 10:41:00,42.2,38.9,29.73,SW,225,2.8,4.6,88,0.00,OVC,,0.02,WeatherDisplay:10.37,2013-10-23 14:41:00,
2013-10-23 10:46:00,42.3,39.0,29.73,WSW,245,4.1,6.9,88,0.00,-RA,,0.02,WeatherDisplay:10.37,2013-10-23 14:46:00,
2013-10-23 10:51:00,42.4,38.8,29.73,SW,227,3.6,5.8,87,0.00,-RA,,0.02,WeatherDisplay:10.37,2013-10-23 14:51:00,
2013-10-23 10:56:00,42.5,38.6,29.73,SW,229,5.3,8.1,86,0.00,-RA,,0.02,WeatherDisplay:10.37,2013-10-23 14:56:00,
2013-10-23 11:01:00,42.6,38.7,29.73,SSW,205,4.8,6.9,86,0.00,-RA,,0.02,WeatherDisplay:10.37,2013-10-23 15:01:00,
2013-10-23 11:06:00,42.7,38.5,29.73,SW,233,5.7,8.1,85,0.00,-RA,,0.02,WeatherDisplay:10.37,2013-10-23 15:06:00,
2013-10-23 11:11:00,42.8,38.9,29.73,SW,214,5.3,8.1,86,0.00,-RA,,0.02,WeatherDisplay:10.37,2013-10-23 15:11:00,
2013-10-23 11:16:00,42.8,38.0,29.73,SW,233,6.6,11.5,83,0.00,OVC,,0.02,WeatherDisplay:10.37,2013-10-23 15:16:00,
2013-10-23 11:21:00,42.7,37.6,29.73,SW,233,7.8,10.4,82,0.00,OVC,,0.02,WeatherDisplay:10.37,2013-10-23 15:21:00,
2013-10-23 11:26:00,42.7,37.6,29.73,SW,234,6.2,8.1,82,0.00,OVC,,0.02,WeatherDisplay:10.37,2013-10-23 15:26:00,
2013-10-23 11:31:00,42.9,38.1,29.73,WSW,242,3.9,6.9,83,0.00,OVC,,0.02,WeatherDisplay:10.37,2013-10-23 15:31:00,
2013-10-23 11:36:00,43.0,37.6,29.73,WSW,242,6.7,11.5,81,0.00,OVC,,0.02,WeatherDisplay:10.37,2013-10-23 15:36:00,
2013-10-23 11:41:00,43.1,37.7,29.73,SSW,198,5.3,9.2,81,0.00,OVC,,0.02,WeatherDisplay:10.37,2013-10-23 15:41:00,
2013-10-23 11:46:00,43.2,37.8,29.73,SW,233,5.6,8.1,81,0.00,OVC,,0.02,WeatherDisplay:10.37,2013-10-23 15:46:00,
2013-10-23 11:51:00,43.3,37.9,29.73,WSW,239,2.7,3.5,81,0.00,OVC,,0.02,WeatherDisplay:10.37,2013-10-23 15:51:00,
2013-10-23 11:57:00,43.3,37.9,29.73,West,277,3.5,5.8,81,0.00,OVC,,0.02,WeatherDisplay:10.37,2013-10-23 15:57:00,
2013-10-23 12:02:00,42.9,38.4,29.73,West,270,4.5,6.9,84,0.00,OVC,,0.02,WeatherDisplay:10.37,2013-10-23 16:02:00,
2013-10-23 12:07:00,42.1,38.2,29.73,West,278,5.2,9.2,86,0.00,OVC,,0.02,WeatherDisplay:10.37,2013-10-23 16:07:00,
2013-10-23 12:12:00,41.5,37.9,29.73,WNW,294,4.7,6.9,87,0.00,OVC,,0.02,WeatherDisplay:10.37,2013-10-23 16:12:00,
2013-10-23 12:17:00,41.3,38.0,29.73,West,270,1.2,3.5,88,0.00,OVC,,0.02,WeatherDisplay:10.37,2013-10-23 16:17:00,
2013-10-23 12:22:00,41.2,38.2,29.73,WNW,283,4.6,6.0,89,0.00,OVC,,0.02,WeatherDisplay:10.37,2013-10-23 16:22:00,
2013-10-23 12:27:00,41.2,38.2,29.73,WSW,252,3.4,4.6,89,0.01,RA,,0.03,WeatherDisplay:10.37,2013-10-23 16:27:00,
2013-10-23 12:32:00,41.1,38.4,29.73,WNW,283,2.5,4.0,90,0.01,RA,,0.03,WeatherDisplay:10.37,2013-10-23 16:32:00,
2013-10-23 12:37:00,41.0,38.3,29.73,West,259,3.2,4.6,90,0.01,OVC,,0.03,WeatherDisplay:10.37,2013-10-23 16:37:00,
2013-10-23 12:42:00,41.0,38.3,29.73,West,262,3.9,4.6,90,0.01,OVC,,0.03,WeatherDisplay:10.37,2013-10-23 16:42:00,
2013-10-23 12:47:00,41.2,38.8,29.73,SW,233,3.6,5.0,91,0.01,OVC,,0.03,WeatherDisplay:10.37,2013-10-23 16:47:00,
2013-10-23 12:52:00,41.4,39.0,29.72,WSW,237,3.1,5.8,91,0.01,OVC,,0.03,WeatherDisplay:10.37,2013-10-23 16:52:00,
2013-10-23 12:57:00,41.5,39.1,29.72,WSW,255,3.9,4.6,91,0.01,OVC,,0.03,WeatherDisplay:10.37,2013-10-23 16:57:00,
2013-10-23 13:02:00,41.6,39.2,29.72,SW,228,3.8,6.0,91,0.01,BKN,,0.03,WeatherDisplay:10.37,2013-10-23 17:02:00,
2013-10-23 13:07:00,41.7,39.0,29.72,WSW,246,6.3,8.1,90,0.01,BKN,,0.03,WeatherDisplay:10.37,2013-10-23 17:07:00,
2013-10-23 13:12:00,41.9,39.5,29.72,SW,234,4.1,6.9,91,0.01,BKN,,0.03,WeatherDisplay:10.37,2013-10-23 17:12:00,
2013-10-23 13:17:00,41.9,39.2,29.72,WSW,246,5.5,8.1,90,0.01,BKN,,0.03,WeatherDisplay:10.37,2013-10-23 17:17:00,
2013-10-23 13:22:00,41.9,39.2,29.71,SW,225,5.1,10.0,90,0.01,BKN,,0.03,WeatherDisplay:10.37,2013-10-23 17:22:00,
2013-10-23 13:27:00,41.9,39.2,29.71,SW,236,5.1,6.9,90,0.01,RA,,0.04,WeatherDisplay:10.37,2013-10-23 17:27:00,
2013-10-23 13:32:00,42.0,39.3,29.71,SW,220,4.7,6.9,90,0.01,RA,,0.04,WeatherDisplay:10.37,2013-10-23 17:32:00,
2013-10-23 13:37:00,42.2,39.5,29.71,WSW,243,3.5,5.8,90,0.01,BKN,,0.04,WeatherDisplay:10.37,2013-10-23 17:37:00,
2013-10-23 13:42:00,42.5,39.8,29.71,West,281,4.1,5.8,90,0.01,BKN,,0.04,WeatherDisplay:10.37,2013-10-23 17:42:00,
2013-10-23 13:47:00,42.7,40.0,29.70,SW,236,4.2,7.0,90,0.01,-RA,,0.04,WeatherDisplay:10.37,2013-10-23 17:47:00,
2013-10-23 13:52:00,42.5,39.5,29.70,WSW,255,7.8,10.4,89,0.01,-RA,,0.04,WeatherDisplay:10.37,2013-10-23 17:52:00,
2013-10-23 13:57:00,42.5,39.8,29.70,West,280,3.8,6.9,90,0.01,-RA,,0.04,WeatherDisplay:10.37,2013-10-23 17:57:00,
2013-10-23 14:02:00,42.7,40.0,29.70,SW,235,4.2,6.9,90,0.01,-RA,,0.04,WeatherDisplay:10.37,2013-10-23 18:02:00,
2013-10-23 14:07:00,43.0,40.3,29.70,SW,227,6.0,11.5,90,0.01,-RA,,0.04,WeatherDisplay:10.37,2013-10-23 18:07:00,
2013-10-23 14:12:00,42.9,39.9,29.70,WSW,239,5.4,8.1,89,0.01,-RA,,0.04,WeatherDisplay:10.37,2013-10-23 18:12:00,
2013-10-23 14:17:00,43.1,40.1,29.70,West,267,6.9,10.4,89,0.01,-RA,,0.04,WeatherDisplay:10.37,2013-10-23 18:17:00,
2013-10-23 14:22:00,43.2,39.9,29.70,West,267,4.1,5.8,88,0.01,-RA,,0.04,WeatherDisplay:10.37,2013-10-23 18:22:00,
2013-10-23 14:27:00,43.5,39.9,29.70,WNW,285,4.9,8.0,87,0.00,-RA,,0.04,WeatherDisplay:10.37,2013-10-23 18:27:00,
2013-10-23 14:32:00,44.1,40.2,29.69,WSW,257,5.8,9.2,86,0.00,-RA,,0.04,WeatherDisplay:10.37,2013-10-23 18:32:00,
2013-10-23 14:37:00,44.8,40.3,29.69,WNW,293,5.2,9.0,84,0.00,-RA,,0.04,WeatherDisplay:10.37,2013-10-23 18:37:00,
2013-10-23 14:42:00,44.6,39.1,29.69,WNW,283,5.4,12.0,81,0.00,-RA,,0.04,WeatherDisplay:10.37,2013-10-23 18:42:00,
2013-10-23 14:48:00,44.3,38.2,29.70,West,269,7.6,10.4,79,0.00,-RA,,0.04,WeatherDisplay:10.37,2013-10-23 18:48:00,
2013-10-23 14:53:00,43.9,37.5,29.70,WSW,255,6.0,10.4,78,0.00,-RA,,0.04,WeatherDisplay:10.37,2013-10-23 18:53:00,
2013-10-23 14:58:00,44.3,38.2,29.70,WNW,297,4.6,6.9,79,0.00,-RA,,0.04,WeatherDisplay:10.37,2013-10-23 18:58:00,
2013-10-23 15:03:00,44.8,38.0,29.69,West,266,6.0,10.4,77,0.00,BKN,,0.04,WeatherDisplay:10.37,2013-10-23 19:03:00,
2013-10-23 15:08:00,45.4,36.9,29.69,WNW,295,7.8,11.5,72,0.00,BKN,,0.04,WeatherDisplay:10.37,2013-10-23 19:08:00,
2013-10-23 15:13:00,45.4,36.5,29.70,WNW,293,8.7,11.5,71,0.00,BKN,,0.04,WeatherDisplay:10.37,2013-10-23 19:13:00,
2013-10-23 15:18:00,45.1,37.0,29.70,NNW,327,4.8,11.5,73,0.00,BKN,,0.04,WeatherDisplay:10.37,2013-10-23 19:18:00,
2013-10-23 15:23:00,45.4,36.9,29.70,WNW,283,6.4,9.2,72,0.00,BKN,,0.04,WeatherDisplay:10.37,2013-10-23 19:23:00,
2013-10-23 15:28:00,45.3,37.2,29.70,West,269,4.7,7.0,73,0.00,BKN,,0.04,WeatherDisplay:10.37,2013-10-23 19:28:00,
2013-10-23 15:33:00,45.1,36.6,29.70,WNW,293,6.4,9.2,72,0.00,BKN,,0.04,WeatherDisplay:10.37,2013-10-23 19:33:00,
2013-10-23 15:38:00,45.2,37.1,29.70,WNW,283,5.5,10.4,73,0.00,BKN,,0.04,WeatherDisplay:10.37,2013-10-23 19:38:00,
2013-10-23 15:43:00,45.7,37.2,29.70,WNW,295,7.4,11.5,72,0.00,BKN,,0.04,WeatherDisplay:10.37,2013-10-23 19:43:00,
2013-10-23 15:48:00,45.7,37.2,29.70,WNW,283,6.0,9.2,72,0.00,BKN,,0.04,WeatherDisplay:10.37,2013-10-23 19:48:00,
2013-10-23 15:53:00,45.6,37.8,29.71,NW,309,4.6,6.9,74,0.00,BKN,,0.04,WeatherDisplay:10.37,2013-10-23 19:53:00,
2013-10-23 15:58:00,45.9,38.1,29.71,WNW,290,7.4,12.0,74,0.00,BKN,,0.04,WeatherDisplay:10.37,2013-10-23 19:58:00,
2013-10-23 16:03:00,45.5,37.3,29.71,WNW,291,6.5,10.4,73,0.00,BKN,,0.04,WeatherDisplay:10.37,2013-10-23 20:03:00,
2013-10-23 16:08:00,45.1,37.0,29.71,WNW,290,6.8,10.4,73,0.00,BKN,,0.04,WeatherDisplay:10.37,2013-10-23 20:08:00,
2013-10-23 16:13:00,45.2,37.4,29.71,WNW,291,6.2,11.5,74,0.00,BKN,,0.04,WeatherDisplay:10.37,2013-10-23 20:13:00,
2013-10-23 16:18:00,45.4,36.9,29.71,WNW,291,7.0,12.7,72,0.00,BKN,,0.04,WeatherDisplay:10.37,2013-10-23 20:18:00,
2013-10-23 16:23:00,45.6,37.4,29.71,SW,236,5.0,8.1,73,0.00,BKN,,0.04,WeatherDisplay:10.37,2013-10-23 20:23:00,
2013-10-23 16:28:00,45.4,36.2,29.71,WNW,284,7.3,10.4,70,0.00,BKN,,0.04,WeatherDisplay:10.37,2013-10-23 20:28:00,
2013-10-23 16:33:00,45.7,35.7,29.71,West,264,3.1,8.1,68,0.00,BKN,,0.04,WeatherDisplay:10.37,2013-10-23 20:33:00,
2013-10-23 16:38:00,46.2,35.5,29.72,West,260,6.4,9.2,66,0.00,BKN,,0.04,WeatherDisplay:10.37,2013-10-23 20:38:00,
2013-10-23 16:43:00,46.2,35.1,29.72,WNW,301,6.9,11.5,65,0.00,BKN,,0.04,WeatherDisplay:10.37,2013-10-23 20:43:00,
2013-10-23 16:48:00,45.6,34.9,29.72,West,273,6.8,11.5,66,0.00,BKN,,0.04,WeatherDisplay:10.37,2013-10-23 20:48:00,
2013-10-23 16:53:00,45.2,34.9,29.72,NW,316,4.1,8.1,67,0.00,BKN,,0.04,WeatherDisplay:10.37,2013-10-23 20:53:00,
2013-10-23 16:58:00,45.0,35.1,29.72,WNW,294,3.8,4.6,68,0.00,BKN,,0.04,WeatherDisplay:10.37,2013-10-23 20:58:00,
2013-10-23 17:03:00,44.9,35.0,29.73,WNW,293,6.1,8.0,68,0.00,BKN,,0.04,WeatherDisplay:10.37,2013-10-23 21:03:00,
2013-10-23 17:08:00,44.7,34.8,29.73,NNW,327,7.4,11.5,68,0.00,BKN,,0.04,WeatherDisplay:10.37,2013-10-23 21:08:00,
2013-10-23 17:13:00,44.5,35.3,29.73,NW,313,6.1,8.1,70,0.00,BKN,,0.04,WeatherDisplay:10.37,2013-10-23 21:13:00,
2013-10-23 17:18:00,44.4,35.2,29.73,WNW,290,5.0,9.2,70,0.00,BKN,,0.04,WeatherDisplay:10.37,2013-10-23 21:18:00,
2013-10-23 17:23:00,44.2,35.0,29.73,WNW,290,4.8,10.4,70,0.00,BKN,,0.04,WeatherDisplay:10.37,2013-10-23 21:23:00,
2013-10-23 17:28:00,44.0,35.2,29.74,WNW,283,3.6,9.2,71,0.00,BKN,,0.04,WeatherDisplay:10.37,2013-10-23 21:28:00,
2013-10-23 17:33:00,44.0,35.6,29.74,NNW,333,4.9,8.1,72,0.00,-RA,,0.04,WeatherDisplay:10.37,2013-10-23 21:33:00,
2013-10-23 17:38:00,44.2,36.1,29.74,WNW,301,3.6,9.2,73,0.00,-RA,,0.04,WeatherDisplay:10.37,2013-10-23 21:38:00,
2013-10-23 17:43:00,44.3,36.5,29.74,NNW,327,3.5,5.8,74,0.00,-RA,,0.04,WeatherDisplay:10.37,2013-10-23 21:43:00,
2013-10-23 17:48:00,44.2,36.8,29.74,NNW,333,1.5,3.5,75,0.00,-RA,,0.04,WeatherDisplay:10.37,2013-10-23 21:48:00,
2013-10-23 17:53:00,44.1,36.3,29.74,NNW,343,1.7,3.5,74,0.00,-RA,,0.04,WeatherDisplay:10.37,2013-10-23 21:53:00,
2013-10-23 17:58:00,44.2,36.4,29.74,NW,311,2.9,4.0,74,0.00,-RA,,0.04,WeatherDisplay:10.37,2013-10-23 21:58:00,
2013-10-23 18:03:00,44.2,36.4,29.74,NW,311,0.6,3.5,74,0.00,BKN,,0.04,WeatherDisplay:10.37,2013-10-23 22:03:00,
2013-10-23 18:08:00,44.0,36.6,29.74,NW,325,0.7,2.3,75,0.00,BKN,,0.04,WeatherDisplay:10.37,2013-10-23 22:08:00,
2013-10-23 18:13:00,43.6,36.2,29.75,NW,314,1.4,4.6,75,0.00,BKN,,0.04,WeatherDisplay:10.37,2013-10-23 22:13:00,
2013-10-23 18:18:00,43.2,36.5,29.75,North,349,2.2,3.5,77,0.00,BKN,,0.04,WeatherDisplay:10.37,2013-10-23 22:18:00,
2013-10-23 18:23:00,42.7,36.3,29.75,NW,322,1.4,3.5,78,0.00,BKN,,0.04,WeatherDisplay:10.37,2013-10-23 22:23:00,
2013-10-23 18:28:00,42.2,36.2,29.75,NW,311,0.0,3.5,79,0.00,BKN,,0.04,WeatherDisplay:10.37,2013-10-23 22:28:00,
2013-10-23 18:33:00,41.8,36.1,29.75,NW,311,0.0,0.0,80,0.00,BKN,,0.04,WeatherDisplay:10.37,2013-10-23 22:33:00,
2013-10-23 18:38:00,41.4,36.3,29.75,NW,311,0.0,0.0,82,0.00,BKN,,0.04,WeatherDisplay:10.37,2013-10-23 22:38:00,
2013-10-23 18:44:00,40.8,36.0,29.75,NW,311,0.0,0.0,83,0.00,BKN,,0.04,WeatherDisplay:10.37,2013-10-23 22:44:00,
2013-10-23 18:49:00,40.5,35.7,29.75,NW,311,0.0,0.0,83,0.00,BKN,,0.04,WeatherDisplay:10.37,2013-10-23 22:49:00,
2013-10-23 18:54:00,40.1,35.7,29.75,NW,311,0.0,0.0,84,0.00,BKN,,0.04,WeatherDisplay:10.37,2013-10-23 22:54:00,
2013-10-23 18:59:00,39.9,36.1,29.76,WNW,283,0.7,1.2,86,0.00,BKN,,0.04,WeatherDisplay:10.37,2013-10-23 22:59:00,
2013-10-23 19:04:00,39.9,36.6,29.76,West,271,2.2,3.5,88,0.00,SCT,,0.04,WeatherDisplay:10.37,2013-10-23 23:04:00,
2013-10-23 19:09:00,39.9,36.6,29.76,WSW,246,1.3,2.3,88,0.00,SCT,,0.04,WeatherDisplay:10.37,2013-10-23 23:09:00,
2013-10-23 19:14:00,40.0,36.4,29.77,SW,232,3.1,3.5,87,0.00,SCT,,0.04,WeatherDisplay:10.37,2013-10-23 23:14:00,
2013-10-23 19:19:00,40.0,36.2,29.77,WSW,252,3.2,4.0,86,0.01,RA,,0.05,WeatherDisplay:10.37,2013-10-23 23:19:00,
2013-10-23 19:24:00,40.1,36.0,29.76,SSW,207,1.1,3.5,85,0.01,RA,,0.05,WeatherDisplay:10.37,2013-10-23 23:24:00,
2013-10-23 19:29:00,40.0,35.9,29.77,WSW,248,3.0,4.0,85,0.01,SCT,,0.05,WeatherDisplay:10.37,2013-10-23 23:29:00,
2013-10-23 19:34:00,39.9,35.8,29.77,SW,217,1.7,3.5,85,0.01,SCT,,0.05,WeatherDisplay:10.37,2013-10-23 23:34:00,
2013-10-23 19:39:00,39.8,35.7,29.77,WSW,245,1.9,2.3,85,0.01,SCT,,0.05,WeatherDisplay:10.37,2013-10-23 23:39:00,
2013-10-23 19:44:00,39.6,35.8,29.77,SW,226,2.1,3.5,86,0.01,SCT,,0.05,WeatherDisplay:10.37,2013-10-23 23:44:00,
2013-10-23 19:49:00,39.3,35.5,29.77,WSW,252,2.2,3.5,86,0.01,SCT,,0.05,WeatherDisplay:10.37,2013-10-23 23:49:00,
2013-10-23 19:54:00,39.1,35.3,29.77,SW,226,2.7,3.5,86,0.01,SCT,,0.05,WeatherDisplay:10.37,2013-10-23 23:54:00,
2013-10-23 19:59:00,39.0,35.2,29.77,SW,233,2.3,3.5,86,0.01,SCT,,0.05,WeatherDisplay:10.37,2013-10-23 23:59:00,
2013-10-23 20:04:00,38.9,35.1,29.77,SW,233,1.9,2.3,86,0.01,OVC,,0.05,WeatherDisplay:10.37,2013-10-24 00:04:00,
2013-10-23 20:09:00,38.7,35.2,29.77,SW,229,2.4,3.5,87,0.01,OVC,,0.05,WeatherDisplay:10.37,2013-10-24 00:09:00,
2013-10-23 20:14:00,38.4,34.9,29.78,SW,231,1.7,2.3,87,0.01,OVC,,0.05,WeatherDisplay:10.37,2013-10-24 00:14:00,
2013-10-23 20:19:00,38.1,34.6,29.78,WSW,240,2.0,3.5,87,0.00,OVC,,0.05,WeatherDisplay:10.37,2013-10-24 00:19:00,
2013-10-23 20:24:00,37.9,34.7,29.78,WSW,240,1.4,2.3,88,0.00,OVC,,0.05,WeatherDisplay:10.37,2013-10-24 00:24:00,
2013-10-23 20:29:00,37.8,34.6,29.78,WSW,240,1.3,2.3,88,0.00,OVC,,0.05,WeatherDisplay:10.37,2013-10-24 00:29:00,
2013-10-23 20:34:00,37.7,34.8,29.78,WSW,254,2.1,3.5,89,0.00,OVC,,0.05,WeatherDisplay:10.37,2013-10-24 00:34:00,
2013-10-23 20:39:00,37.6,34.7,29.78,WSW,250,1.4,2.3,89,0.00,OVC,,0.05,WeatherDisplay:10.37,2013-10-24 00:39:00,
2013-10-23 20:44:00,37.5,34.6,29.78,WSW,246,2.1,3.5,89,0.00,OVC,,0.05,WeatherDisplay:10.37,2013-10-24 00:44:00,
2013-10-23 20:49:00,37.4,34.5,29.78,WSW,251,1.8,3.0,89,0.00,OVC,,0.05,WeatherDisplay:10.37,2013-10-24 00:49:00,
2013-10-23 20:54:00,37.3,34.6,29.78,SW,231,3.0,3.5,90,0.00,OVC,,0.05,WeatherDisplay:10.37,2013-10-24 00:54:00,
2013-10-23 20:59:00,37.2,34.5,29.78,SW,236,2.2,3.0,90,0.00,OVC,,0.05,WeatherDisplay:10.37,2013-10-24 00:59:00,
2013-10-23 21:04:00,37.1,34.4,29.78,SW,228,1.6,2.3,90,0.00,BKN,,0.05,WeatherDisplay:10.37,2013-10-24 01:04:00,
2013-10-23 21:09:00,36.9,34.2,29.78,SW,229,1.5,2.3,90,0.00,BKN,,0.05,WeatherDisplay:10.37,2013-10-24 01:09:00,
2013-10-23 21:14:00,36.7,34.0,29.79,SW,233,1.9,3.5,90,0.00,BKN,,0.05,WeatherDisplay:10.37,2013-10-24 01:14:00,
2013-10-23 21:19:00,36.6,33.9,29.79,SW,232,1.5,2.3,90,0.00,BKN,,0.05,WeatherDisplay:10.37,2013-10-24 01:19:00,
2013-10-23 21:24:00,36.5,33.8,29.79,West,259,2.3,3.5,90,0.00,BKN,,0.05,WeatherDisplay:10.37,2013-10-24 01:24:00,
2013-10-23 21:29:00,36.5,33.8,29.79,SW,226,3.1,3.5,90,0.00,BKN,,0.05,WeatherDisplay:10.37,2013-10-24 01:29:00,
2013-10-23 21:34:00,36.4,33.7,29.79,SW,234,2.8,3.5,90,0.00,BKN,,0.05,WeatherDisplay:10.37,2013-10-24 01:34:00,
2013-10-23 21:39:00,36.4,33.7,29.79,SW,229,2.9,4.0,90,0.00,BKN,,0.05,WeatherDisplay:10.37,2013-10-24 01:39:00,
2013-10-23 21:44:00,36.4,33.7,29.79,SW,236,3.0,4.6,90,0.00,BKN,,0.05,WeatherDisplay:10.37,2013-10-24 01:44:00,
2013-10-23 21:49:00,36.3,33.4,29.79,WSW,240,2.6,3.5,89,0.00,BKN,,0.05,WeatherDisplay:10.37,2013-10-24 01:49:00,
2013-10-23 21:54:00,36.1,32.9,29.79,WSW,248,2.9,4.0,88,0.00,BKN,,0.05,WeatherDisplay:10.37,2013-10-24 01:54:00,
2013-10-23 21:59:00,36.0,32.8,29.79,SW,233,2.6,3.5,88,0.00,BKN,,0.05,WeatherDisplay:10.37,2013-10-24 01:59:00,
2013-10-23 22:04:00,36.0,32.5,29.79,SW,233,3.0,3.5,87,0.00,BKN,,0.05,WeatherDisplay:10.37,2013-10-24 02:04:00,
2013-10-23 22:09:00,36.0,32.5,29.80,WSW,245,2.2,3.5,87,0.00,BKN,,0.05,WeatherDisplay:10.37,2013-10-24 02:09:00,
2013-10-23 22:14:00,36.0,32.5,29.80,SW,225,3.3,4.0,87,0.00,BKN,,0.05,WeatherDisplay:10.37,2013-10-24 02:14:00,
2013-10-23 22:19:00,35.8,32.3,29.80,WSW,239,3.6,4.6,87,0.00,BKN,,0.05,WeatherDisplay:10.37,2013-10-24 02:19:00,
2013-10-23 22:24:00,35.5,32.0,29.80,WSW,239,1.8,3.0,87,0.00,BKN,,0.05,WeatherDisplay:10.37,2013-10-24 02:24:00,
2013-10-23 22:29:00,35.4,31.9,29.80,WSW,239,2.0,4.0,87,0.00,BKN,,0.05,WeatherDisplay:10.37,2013-10-24 02:29:00,
2013-10-23 22:34:00,35.3,31.5,29.80,WSW,245,2.3,3.5,86,0.00,BKN,,0.05,WeatherDisplay:10.37,2013-10-24 02:34:00,
2013-10-23 22:39:00,35.2,31.4,29.80,WSW,238,2.5,3.5,86,0.00,BKN,,0.05,WeatherDisplay:10.37,2013-10-24 02:39:00,
2013-10-23 22:44:00,35.2,31.7,29.80,WSW,240,2.2,3.5,87,0.00,BKN,,0.05,WeatherDisplay:10.37,2013-10-24 02:44:00,
2013-10-23 22:49:00,35.2,31.7,29.80,WSW,240,3.7,4.6,87,0.00,BKN,,0.05,WeatherDisplay:10.37,2013-10-24 02:49:00,
2013-10-23 22:54:00,35.2,31.7,29.80,WSW,248,3.4,4.6,87,0.00,BKN,,0.05,WeatherDisplay:10.37,2013-10-24 02:54:00,
2013-10-23 22:59:00,35.2,31.7,29.80,WSW,240,2.0,5.0,87,0.00,BKN,,0.05,WeatherDisplay:10.37,2013-10-24 02:59:00,
2013-10-23 23:04:00,35.3,31.8,29.80,West,262,3.2,3.5,87,0.00,BKN,,0.05,WeatherDisplay:10.37,2013-10-24 03:04:00,
2013-10-23 23:09:00,35.4,31.9,29.81,WSW,243,6.0,9.0,87,0.00,BKN,,0.05,WeatherDisplay:10.37,2013-10-24 03:09:00,
2013-10-23 23:14:00,35.5,32.0,29.81,WSW,249,4.0,5.0,87,0.00,BKN,,0.05,WeatherDisplay:10.37,2013-10-24 03:14:00,
2013-10-23 23:19:00,35.6,31.8,29.81,WSW,249,5.0,7.0,86,0.00,FEW,,0.05,WeatherDisplay:10.37,2013-10-24 03:19:00,
2013-10-23 23:24:00,35.8,32.0,29.81,WSW,251,6.0,8.0,86,0.00,FEW,,0.05,WeatherDisplay:10.37,2013-10-24 03:24:00,
2013-10-23 23:29:00,35.9,31.8,29.81,SSW,210,5.9,8.1,85,0.00,FEW,,0.05,WeatherDisplay:10.37,2013-10-24 03:29:00,
2013-10-23 23:34:00,35.8,31.7,29.81,WSW,243,6.2,8.1,85,0.00,FEW,,0.05,WeatherDisplay:10.37,2013-10-24 03:34:00,
2013-10-23 23:39:00,35.8,31.7,29.81,WSW,248,5.0,8.0,85,0.00,FEW,,0.05,WeatherDisplay:10.37,2013-10-24 03:39:00,
2013-10-23 23:44:00,35.7,31.6,29.81,WSW,254,3.2,4.6,85,0.00,FEW,,0.05,WeatherDisplay:10.37,2013-10-24 03:44:00,
2013-10-23 23:49:00,35.5,31.4,29.81,WSW,243,3.1,4.6,85,0.00,FEW,,0.05,WeatherDisplay:10.37,2013-10-24 03:49:00,
2013-10-23 23:54:00,35.3,31.5,29.81,WSW,243,3.0,6.0,86,0.00,FEW,,0.05,WeatherDisplay:10.37,2013-10-24 03:54:00,
2013-10-23 23:59:00,35.1,31.3,29.80,WSW,239,3.0,5.0,86,0.00,FEW,,0.00,WeatherDisplay:10.37,2013-10-24 03:59:00,